createdAt,value
2022-09-22T00:02:16.896Z,75.90
2022-09-22T00:04:43.429Z,75.83
2022-09-22T00:07:10.018Z,75.46
2022-09-22T00:09:36.478Z,75.86
2022-09-22T00:12:03.009Z,75.83
2022-09-22T00:14:29.664Z,75.48
2022-09-22T00:16:59.345Z,75.58
2022-09-22T00:19:31.721Z,75.77
2022-09-22T00:21:58.932Z,75.60
2022-09-22T00:24:26.966Z,75.22
2022-09-22T00:26:57.493Z,75.25
2022-09-22T00:29:29.089Z,75.53
2022-09-22T00:31:56.513Z,75.11
2022-09-22T00:34:25.251Z,75.56
2022-09-22T00:36:52.082Z,75.25
2022-09-22T00:39:19.206Z,75.53
2022-09-22T00:41:49.218Z,75.89
2022-09-22T00:44:21.590Z,75.55
2022-09-22T00:47:11.283Z,75.90
2022-09-22T00:49:45.980Z,75.73
2022-09-22T00:52:19.513Z,75.52
2022-09-22T00:54:46.442Z,75.38
2022-09-22T00:57:22.484Z,75.37
2022-09-22T00:59:51.235Z,74.75
2022-09-22T01:02:17.948Z,75.26
2022-09-22T01:04:45.778Z,75.13
2022-09-22T01:07:13.119Z,75.89
2022-09-22T01:09:39.746Z,75.88
2022-09-22T01:12:06.789Z,75.77
2022-09-22T01:15:04.961Z,76.58
2022-09-22T01:18:08.392Z,75.90
2022-09-22T01:21:07.969Z,76.07
2022-09-22T01:24:19.394Z,75.88
2022-09-22T01:27:00.814Z,76.79
2022-09-22T01:29:45.895Z,76.25
2022-09-22T01:32:19.446Z,76.74
2022-09-22T01:34:48.685Z,76.91
2022-09-22T01:37:25.782Z,76.78
2022-09-22T01:40:00.239Z,76.53
2022-09-22T01:42:37.007Z,76.79
2022-09-22T01:45:09.783Z,76.70
2022-09-22T01:47:52.183Z,76.86
2022-09-22T01:50:36.104Z,76.30
2022-09-22T01:53:08.562Z,76.02
2022-09-22T01:55:39.065Z,76.41
2022-09-22T01:58:10.693Z,76.40
2022-09-22T02:00:40.849Z,76.35
2022-09-22T02:03:21.270Z,76.42
2022-09-22T02:06:02.815Z,76.39
2022-09-22T02:08:32.671Z,76.99
2022-09-22T02:11:07.838Z,76.71
2022-09-22T02:13:34.351Z,76.46
2022-09-22T02:16:00.887Z,76.70
2022-09-22T02:18:45.524Z,77.10
2022-09-22T02:21:13.822Z,77.11
2022-09-22T02:23:41.237Z,77.51
2022-09-22T02:26:08.670Z,77.25
2022-09-22T02:28:38.703Z,77.40
2022-09-22T02:31:23.036Z,77.32
2022-09-22T02:33:51.912Z,76.37
2022-09-22T02:37:06.468Z,77.22
2022-09-22T02:39:47.420Z,76.99
2022-09-22T02:42:34.015Z,76.94
2022-09-22T02:45:11.949Z,76.93
2022-09-22T02:47:46.999Z,76.55
2022-09-22T02:50:17.358Z,76.64
2022-09-22T02:52:43.852Z,76.60
2022-09-22T02:55:11.190Z,77.52
2022-09-22T02:57:37.803Z,77.26
2022-09-22T03:00:05.565Z,77.16
2022-09-22T03:02:32.272Z,76.82
2022-09-22T03:04:58.975Z,77.04
2022-09-22T03:07:25.482Z,77.86
2022-09-22T03:09:52.112Z,77.73
2022-09-22T03:12:18.920Z,77.37
2022-09-22T03:14:45.470Z,77.44
2022-09-22T03:17:11.904Z,77.24
2022-09-22T03:19:38.541Z,77.07
2022-09-22T03:22:05.040Z,76.77
2022-09-22T03:24:31.556Z,77.21
2022-09-22T03:26:58.287Z,77.50
2022-09-22T03:29:24.788Z,77.26
2022-09-22T03:31:51.264Z,77.38
2022-09-22T03:34:17.749Z,77.03
2022-09-22T03:36:44.259Z,76.55
2022-09-22T03:39:10.684Z,76.77
2022-09-22T03:41:37.736Z,76.80
2022-09-22T03:44:06.087Z,77.56
2022-09-22T03:46:32.738Z,77.36
2022-09-22T03:48:59.425Z,77.74
2022-09-22T03:51:26.416Z,77.25
2022-09-22T03:53:54.417Z,77.48
2022-09-22T03:56:20.878Z,76.44
2022-09-22T03:58:47.368Z,76.63
2022-09-22T04:01:13.892Z,77.48
2022-09-22T04:03:41.060Z,77.58
2022-09-22T04:06:07.909Z,77.27
2022-09-22T04:08:34.469Z,76.75
2022-09-22T04:11:03.203Z,77.54
2022-09-22T04:13:29.842Z,77.44
2022-09-22T04:15:56.394Z,77.51
2022-09-22T04:18:23.100Z,77.30
2022-09-22T04:20:49.645Z,77.36
2022-09-22T04:23:17.213Z,76.99
2022-09-22T04:25:43.728Z,76.70
2022-09-22T04:28:10.231Z,76.87
2022-09-22T04:30:37.526Z,77.43
2022-09-22T04:33:04.336Z,76.74
2022-09-22T04:35:31.007Z,77.20
2022-09-22T04:37:58.138Z,76.56
2022-09-22T04:40:25.678Z,77.33
2022-09-22T04:42:52.681Z,76.76
2022-09-22T04:45:19.215Z,76.65
2022-09-22T04:47:46.796Z,76.60
2022-09-22T04:50:13.656Z,77.04
2022-09-22T04:52:45.318Z,76.85
2022-09-22T04:55:11.869Z,76.91
2022-09-22T04:57:38.584Z,76.75
2022-09-22T05:00:05.974Z,76.86
2022-09-22T05:02:33.909Z,76.38
2022-09-22T05:05:00.359Z,76.93
2022-09-22T05:07:26.794Z,77.64
2022-09-22T05:09:53.378Z,77.05
2022-09-22T05:12:20.412Z,77.56
2022-09-22T05:14:46.890Z,77.54
2022-09-22T05:17:14.126Z,77.30
2022-09-22T05:19:40.872Z,77.30
2022-09-22T05:22:07.321Z,77.02
2022-09-22T05:24:33.918Z,77.26
2022-09-22T05:27:00.366Z,77.65
2022-09-22T05:29:28.111Z,77.44
2022-09-22T05:31:55.029Z,77.11
2022-09-22T05:34:21.746Z,77.52
2022-09-22T05:36:48.264Z,77.90
2022-09-22T05:39:14.782Z,77.74
2022-09-22T05:41:41.269Z,77.75
2022-09-22T05:44:07.712Z,77.61
2022-09-22T05:46:34.270Z,77.31
2022-09-22T05:49:00.833Z,77.15
2022-09-22T05:51:27.397Z,76.96
2022-09-22T05:53:54.063Z,76.73
2022-09-22T05:56:20.487Z,76.69
2022-09-22T05:58:47.908Z,76.89
2022-09-22T06:01:14.565Z,76.16
2022-09-22T06:03:41.424Z,76.03
2022-09-22T06:06:07.884Z,76.01
2022-09-22T06:08:34.458Z,76.28
2022-09-22T06:11:01.199Z,76.24
2022-09-22T06:13:27.778Z,76.26
2022-09-22T06:15:54.308Z,75.98
2022-09-22T06:18:24.591Z,75.87
2022-09-22T06:20:51.461Z,75.60
2022-09-22T06:23:18.036Z,76.05
2022-09-22T06:25:44.531Z,76.10
2022-09-22T06:28:14.129Z,75.34
2022-09-22T06:30:41.119Z,75.83
2022-09-22T06:33:08.284Z,75.05
2022-09-22T06:35:37.940Z,75.61
2022-09-22T06:38:07.074Z,75.31
2022-09-22T06:40:36.543Z,75.57
2022-09-22T06:43:11.926Z,76.32
2022-09-22T06:45:39.703Z,75.94
2022-09-22T06:48:10.028Z,77.27
2022-09-22T06:50:38.392Z,77.26
2022-09-22T06:53:11.235Z,77.43
2022-09-22T06:55:38.168Z,77.89
2022-09-22T06:58:04.970Z,79.19
2022-09-22T07:00:32.767Z,78.69
2022-09-22T07:03:18.156Z,78.99
2022-09-22T07:06:01.741Z,79.44
2022-09-22T07:08:31.080Z,79.68
2022-09-22T07:11:00.817Z,78.90
2022-09-22T07:13:29.834Z,78.22
2022-09-22T07:16:04.851Z,78.43
2022-09-22T07:18:31.419Z,78.57
2022-09-22T07:21:12.334Z,78.04
2022-09-22T07:23:40.823Z,77.18
2022-09-22T07:26:11.751Z,77.17
2022-09-22T07:28:38.918Z,76.98
2022-09-22T07:31:08.035Z,76.32
2022-09-22T07:33:38.270Z,76.32
2022-09-22T07:36:10.813Z,75.69
2022-09-22T07:38:42.366Z,75.14
2022-09-22T07:41:12.120Z,74.82
2022-09-22T07:43:39.467Z,74.72
2022-09-22T07:46:06.395Z,74.38
2022-09-22T07:48:36.443Z,74.18
2022-09-22T07:51:12.954Z,73.26
2022-09-22T07:53:42.387Z,73.06
2022-09-22T07:56:14.923Z,72.60
2022-09-22T07:58:53.535Z,72.19
2022-09-22T08:01:22.793Z,72.35
2022-09-22T08:03:50.549Z,72.18
2022-09-22T08:06:23.617Z,72.27
2022-09-22T08:08:55.309Z,72.19
2022-09-22T08:11:24.196Z,71.76
2022-09-22T08:13:53.765Z,71.50
2022-09-22T08:16:22.945Z,70.99
2022-09-22T08:18:52.947Z,70.27
2022-09-22T08:21:19.606Z,70.07
2022-09-22T08:23:46.122Z,69.97
2022-09-22T08:26:12.687Z,69.56
2022-09-22T08:28:39.153Z,69.07
2022-09-22T08:31:12.413Z,69.52
2022-09-22T08:33:40.794Z,69.27
2022-09-22T08:36:07.624Z,68.65
2022-09-22T08:38:34.415Z,68.71
2022-09-22T08:41:39.452Z,68.22
2022-09-22T08:44:10.787Z,67.73
2022-09-22T08:46:41.324Z,67.38
2022-09-22T08:49:44.814Z,67.33
2022-09-22T08:52:35.649Z,66.56
2022-09-22T08:55:03.213Z,66.11
2022-09-22T08:58:04.328Z,65.21
2022-09-22T09:00:42.512Z,65.06
2022-09-22T09:03:28.429Z,64.50
2022-09-22T09:06:25.288Z,64.10
2022-09-22T09:09:22.757Z,63.71
2022-09-22T09:12:01.030Z,62.61
2022-09-22T09:14:33.341Z,62.49
2022-09-22T09:17:03.673Z,61.73
2022-09-22T09:19:47.005Z,61.81
2022-09-22T09:22:24.886Z,60.33
2022-09-22T09:25:24.938Z,60.34
2022-09-22T09:28:01.257Z,60.50
2022-09-22T09:30:51.998Z,60.77
2022-09-22T09:33:40.419Z,61.58
2022-09-22T09:36:22.940Z,59.30
2022-09-22T09:38:54.253Z,60.03
2022-09-22T09:41:32.418Z,60.13
2022-09-22T09:44:00.345Z,58.48
2022-09-22T09:46:34.518Z,57.51
2022-09-22T09:49:14.385Z,57.73
2022-09-22T09:51:44.919Z,57.58
2022-09-22T09:54:17.592Z,57.09
2022-09-22T09:57:06.708Z,56.92
2022-09-22T09:59:53.334Z,56.79
2022-09-22T10:02:29.782Z,57.33
2022-09-22T10:05:00.731Z,56.63
2022-09-22T10:10:32.754Z,54.43
2022-09-22T10:13:05.441Z,54.20
2022-09-22T10:15:37.265Z,54.42
2022-09-22T10:18:23.685Z,54.30
2022-09-22T10:21:16.769Z,54.08
2022-09-22T10:23:48.366Z,52.64
2022-09-22T10:26:19.256Z,51.04
2022-09-22T10:29:05.646Z,51.92
2022-09-22T10:31:32.894Z,51.59
2022-09-22T10:34:00.622Z,50.40
2022-09-22T10:36:30.842Z,49.61
2022-09-22T10:38:59.722Z,49.25
2022-09-22T10:41:31.554Z,48.88
2022-09-22T10:44:34.571Z,49.18
2022-09-22T10:47:12.171Z,49.04
2022-09-22T10:50:04.937Z,49.68
2022-09-22T10:52:53.570Z,48.53
2022-09-22T10:55:30.522Z,48.14
2022-09-22T10:58:09.102Z,47.56
2022-09-22T11:00:39.372Z,47.32
2022-09-22T11:03:28.914Z,46.25
2022-09-22T11:07:02.235Z,45.91
2022-09-22T11:09:53.477Z,46.11
2022-09-22T11:12:36.888Z,45.92
2022-09-22T11:15:28.020Z,44.71
2022-09-22T11:18:06.228Z,46.15
2022-09-22T11:20:44.842Z,44.50
2022-09-22T11:23:49.314Z,46.10
2022-09-22T11:26:41.562Z,45.18
2022-09-22T11:29:35.153Z,43.71
2022-09-22T11:32:30.505Z,43.64
2022-09-22T11:35:12.385Z,44.17
2022-09-22T11:38:14.344Z,44.41
2022-09-22T11:40:40.860Z,41.96
2022-09-22T11:43:42.030Z,42.65
2022-09-22T11:46:17.387Z,42.30
2022-09-22T11:49:05.882Z,42.30
2022-09-22T11:51:39.021Z,41.73
2022-09-22T11:54:05.601Z,42.80
2022-09-22T11:56:49.165Z,43.71
2022-09-22T11:59:39.654Z,43.48
2022-09-22T12:02:42.259Z,45.69
2022-09-22T12:05:26.950Z,43.16
2022-09-22T12:07:59.689Z,41.62
2022-09-22T12:10:35.089Z,42.21
2022-09-22T12:13:04.470Z,41.85
2022-09-22T12:15:31.001Z,41.87
2022-09-22T12:18:16.611Z,41.05
2022-09-22T12:21:06.729Z,41.63
2022-09-22T12:23:40.176Z,42.36
2022-09-22T12:26:09.884Z,40.52
2022-09-22T12:28:45.761Z,38.82
2022-09-22T12:31:15.311Z,39.35
2022-09-22T12:33:48.884Z,39.82
2022-09-22T12:36:17.160Z,39.76
2022-09-22T12:38:45.540Z,39.38
2022-09-22T12:41:18.367Z,39.34
2022-09-22T12:43:45.951Z,40.28
2022-09-22T12:46:24.546Z,41.18
2022-09-22T12:48:51.646Z,39.15
2022-09-22T12:51:25.003Z,37.83
2022-09-22T12:53:52.208Z,38.90
2022-09-22T12:56:40.369Z,40.65
2022-09-22T12:59:35.790Z,39.30
2022-09-22T13:02:11.548Z,39.17
2022-09-22T13:04:38.562Z,40.60
2022-09-22T13:07:25.129Z,39.12
2022-09-22T13:10:23.913Z,42.39
2022-09-22T13:13:11.790Z,40.91
2022-09-22T13:15:44.142Z,39.89
2022-09-22T13:18:39.220Z,39.17
2022-09-22T13:21:15.029Z,39.60
2022-09-22T13:23:53.780Z,42.38
2022-09-22T13:26:40.956Z,38.37
2022-09-22T13:29:11.830Z,37.99
2022-09-22T13:31:46.878Z,38.67
2022-09-22T13:34:35.360Z,39.18
2022-09-22T13:37:19.538Z,39.32
2022-09-22T13:39:49.632Z,37.92
2022-09-22T13:42:33.192Z,37.00
2022-09-22T13:45:10.489Z,37.47
2022-09-22T13:47:37.651Z,39.27
2022-09-22T13:50:13.748Z,38.03
2022-09-22T13:52:41.572Z,38.56
2022-09-22T13:55:37.270Z,38.23
2022-09-22T13:58:06.984Z,37.25
2022-09-22T14:01:08.587Z,39.75
2022-09-22T14:03:36.304Z,37.90
2022-09-22T14:06:03.021Z,37.47
2022-09-22T14:08:31.378Z,37.85
2022-09-22T14:10:59.740Z,38.37
2022-09-22T14:13:56.213Z,38.61
2022-09-22T14:16:25.971Z,38.73
2022-09-22T14:19:08.832Z,38.12
2022-09-22T14:21:50.520Z,39.51
2022-09-22T14:24:17.405Z,37.73
2022-09-22T14:26:51.301Z,37.23
2022-09-22T14:29:27.029Z,37.78
2022-09-22T14:32:02.773Z,37.92
2022-09-22T14:34:32.831Z,39.10
2022-09-22T14:37:09.727Z,38.15
2022-09-22T14:39:40.887Z,38.60
2022-09-22T14:42:20.027Z,38.56
2022-09-22T14:44:50.006Z,38.19
2022-09-22T14:47:28.414Z,38.11
2022-09-22T14:50:20.390Z,38.13
2022-09-22T14:52:51.670Z,38.35
2022-09-22T14:55:50.335Z,38.99
2022-09-22T14:58:23.802Z,39.53
2022-09-22T15:01:18.773Z,38.89
2022-09-22T15:03:55.849Z,38.28
2022-09-22T15:06:22.397Z,37.43
2022-09-22T15:08:51.988Z,37.27
2022-09-22T15:11:21.370Z,37.04
2022-09-22T15:13:50.804Z,37.08
2022-09-22T15:16:37.719Z,37.58
2022-09-22T15:19:05.401Z,37.67
2022-09-22T15:21:37.030Z,37.85
2022-09-22T15:24:05.547Z,36.63
2022-09-22T15:26:32.913Z,37.35
2022-09-22T15:29:01.650Z,39.38
2022-09-22T15:31:29.735Z,35.30
2022-09-22T15:33:59.986Z,35.44
2022-09-22T15:36:28.623Z,36.11
2022-09-22T15:38:59.702Z,35.48
2022-09-22T15:41:27.445Z,34.93
2022-09-22T15:43:54.130Z,35.17
2022-09-22T15:46:33.957Z,35.10
2022-09-22T15:49:06.526Z,35.10
2022-09-22T15:51:33.371Z,35.37
2022-09-22T15:54:00.064Z,35.42
2022-09-22T15:56:29.730Z,33.90
2022-09-22T15:58:59.318Z,34.10
2022-09-22T16:01:29.548Z,34.89
2022-09-22T16:04:00.480Z,35.22
2022-09-22T16:06:27.271Z,35.32
2022-09-22T16:08:55.348Z,35.78
2022-09-22T16:11:32.307Z,36.90
2022-09-22T16:14:01.155Z,37.13
2022-09-22T16:16:29.396Z,37.01
2022-09-22T16:18:56.695Z,39.19
2022-09-22T16:21:33.302Z,37.80
2022-09-22T16:24:03.977Z,40.03
2022-09-22T16:26:31.754Z,38.05
2022-09-22T16:28:58.880Z,39.58
2022-09-22T16:31:25.752Z,38.43
2022-09-22T16:33:56.789Z,39.53
2022-09-22T16:36:26.162Z,39.26
2022-09-22T16:38:53.074Z,40.51
2022-09-22T16:41:31.062Z,39.18
2022-09-22T16:43:58.177Z,40.52
2022-09-22T16:46:29.885Z,40.04
2022-09-22T16:49:00.231Z,40.89
2022-09-22T16:51:27.841Z,41.24
2022-09-22T16:53:54.350Z,41.97
2022-09-22T16:56:22.971Z,42.71
2022-09-22T16:58:49.590Z,43.63
2022-09-22T17:01:19.753Z,45.08
2022-09-22T17:03:49.603Z,46.13
2022-09-22T17:06:18.294Z,46.79
2022-09-22T17:08:45.901Z,47.02
2022-09-22T17:11:17.399Z,48.22
2022-09-22T17:13:44.922Z,49.20
2022-09-22T17:16:30.825Z,49.89
2022-09-22T17:19:03.259Z,50.59
2022-09-22T17:21:34.074Z,51.41
2022-09-22T17:24:01.831Z,51.30
2022-09-22T17:26:34.570Z,52.18
2022-09-22T17:29:01.979Z,52.89
2022-09-22T17:31:31.266Z,53.28
2022-09-22T17:33:58.423Z,53.79
2022-09-22T17:36:26.354Z,53.89
2022-09-22T17:38:58.628Z,54.03
2022-09-22T17:41:33.476Z,54.83
2022-09-22T17:44:03.042Z,54.89
2022-09-22T17:46:32.397Z,55.19
2022-09-22T17:49:18.289Z,55.26
2022-09-22T17:52:09.060Z,55.69
2022-09-22T17:54:59.645Z,55.90
2022-09-22T17:57:29.266Z,56.21
2022-09-22T17:59:56.921Z,56.69
2022-09-22T18:02:29.142Z,57.05
2022-09-22T18:04:55.834Z,57.26
2022-09-22T18:07:26.371Z,57.30
2022-09-22T18:09:56.411Z,57.72
2022-09-22T18:12:24.770Z,58.56
2022-09-22T18:14:53.214Z,58.97
2022-09-22T18:17:22.846Z,59.01
2022-09-22T18:19:49.412Z,58.89
2022-09-22T18:22:21.047Z,59.42
2022-09-22T18:24:52.339Z,59.30
2022-09-22T18:27:21.568Z,59.63
2022-09-22T18:29:53.243Z,59.61
2022-09-22T18:32:20.830Z,59.69
2022-09-22T18:34:48.064Z,59.91
2022-09-22T18:37:17.617Z,59.59
2022-09-22T18:39:45.565Z,59.60
2022-09-22T18:42:13.529Z,60.19
2022-09-22T18:44:43.758Z,60.29
2022-09-22T18:47:14.439Z,60.12
2022-09-22T18:49:40.895Z,60.72
2022-09-22T18:52:08.645Z,60.58
2022-09-22T18:54:42.916Z,60.63
2022-09-22T18:57:13.262Z,60.85
2022-09-22T18:59:40.141Z,61.00
2022-09-22T19:02:11.304Z,61.47
2022-09-22T19:04:38.884Z,60.63
2022-09-22T19:07:23.957Z,61.26
2022-09-22T19:09:52.499Z,61.66
2022-09-22T19:12:20.414Z,62.46
2022-09-22T19:14:49.893Z,62.58
2022-09-22T19:17:17.571Z,62.50
2022-09-22T19:19:49.054Z,62.38
2022-09-22T19:22:16.250Z,62.55
2022-09-22T19:24:45.017Z,62.20
2022-09-22T19:27:13.983Z,62.09
2022-09-22T19:29:40.842Z,62.98
2022-09-22T19:32:07.627Z,63.06
2022-09-22T19:34:34.318Z,63.09
2022-09-22T19:37:00.913Z,62.64
2022-09-22T19:39:27.487Z,63.49
2022-09-22T19:41:54.945Z,63.30
2022-09-22T19:44:22.506Z,63.41
2022-09-22T19:46:50.114Z,63.04
2022-09-22T19:49:17.251Z,63.81
2022-09-22T19:51:43.802Z,64.34
2022-09-22T19:54:10.735Z,64.56
2022-09-22T19:56:37.394Z,63.93
2022-09-22T19:59:07.331Z,64.60
2022-09-22T20:01:39.616Z,64.09
2022-09-22T20:04:06.495Z,64.50
2022-09-22T20:06:33.717Z,65.42
2022-09-22T20:09:03.111Z,65.87
2022-09-22T20:11:35.480Z,65.28
2022-09-22T20:14:20.502Z,65.71
2022-09-22T20:16:52.657Z,65.45
2022-09-22T20:19:20.520Z,65.13
2022-09-22T20:21:47.727Z,65.66
2022-09-22T20:24:19.325Z,65.04
2022-09-22T20:26:46.534Z,65.41
2022-09-22T20:29:15.717Z,65.63
2022-09-22T20:31:42.994Z,65.64
2022-09-22T20:34:14.185Z,65.95
2022-09-22T20:36:43.196Z,65.87
2022-09-22T20:39:15.173Z,66.22
2022-09-22T20:41:42.684Z,66.47
2022-09-22T20:44:15.013Z,66.26
2022-09-22T20:46:42.559Z,65.65
2022-09-22T20:49:13.676Z,66.44
2022-09-22T20:51:41.259Z,66.86
2022-09-22T20:54:08.330Z,66.92
2022-09-22T20:56:38.308Z,67.34
2022-09-22T20:59:07.707Z,67.69
2022-09-22T21:01:34.655Z,67.99
2022-09-22T21:04:01.413Z,68.33
2022-09-22T21:06:28.020Z,68.69
2022-09-22T21:09:13.318Z,68.43
2022-09-22T21:11:39.934Z,68.81
2022-09-22T21:14:07.142Z,69.00
2022-09-22T21:16:36.161Z,68.81
2022-09-22T21:19:03.857Z,68.71
2022-09-22T21:21:32.157Z,68.76
2022-09-22T21:24:01.945Z,68.33
2022-09-22T21:26:29.740Z,69.08
2022-09-22T21:28:56.639Z,68.78
2022-09-22T21:31:23.371Z,69.23
2022-09-22T21:33:50.476Z,68.94
2022-09-22T21:36:19.421Z,69.70
2022-09-22T21:38:48.314Z,69.57
2022-09-22T21:41:20.645Z,69.46
2022-09-22T21:43:48.636Z,69.32
2022-09-22T21:46:17.614Z,69.30
2022-09-22T21:48:45.043Z,69.48
2022-09-22T21:51:14.669Z,69.23
2022-09-22T21:53:44.034Z,69.38
2022-09-22T21:56:12.346Z,69.32
2022-09-22T21:58:41.574Z,69.44
2022-09-22T22:01:10.699Z,69.85
2022-09-22T22:03:42.170Z,70.04
2022-09-22T22:06:18.227Z,69.93
2022-09-22T22:08:48.249Z,69.51
2022-09-22T22:11:25.374Z,70.12
2022-09-22T22:13:56.659Z,69.69
2022-09-22T22:16:25.788Z,69.62
2022-09-22T22:18:52.407Z,70.40
2022-09-22T22:21:22.967Z,69.91
2022-09-22T22:23:52.301Z,70.01
2022-09-22T22:26:24.057Z,69.84
2022-09-22T22:28:51.713Z,69.94
2022-09-22T22:31:23.095Z,70.30
2022-09-22T22:33:49.990Z,70.16
2022-09-22T22:36:18.318Z,69.80
2022-09-22T22:38:45.763Z,70.58
2022-09-22T22:41:15.131Z,70.29
2022-09-22T22:43:42.326Z,69.61
2022-09-22T22:46:11.181Z,70.00
2022-09-22T22:48:38.068Z,69.59
2022-09-22T22:51:11.459Z,70.09
2022-09-22T22:53:38.326Z,70.17
2022-09-22T22:56:12.100Z,70.89
2022-09-22T22:58:42.860Z,70.56
2022-09-22T23:01:13.407Z,70.17
2022-09-22T23:03:41.272Z,69.96
2022-09-22T23:06:14.055Z,70.87
2022-09-22T23:08:41.448Z,70.78
2022-09-22T23:11:16.226Z,70.34
2022-09-22T23:13:50.937Z,70.77
2022-09-22T23:16:20.769Z,70.75
2022-09-22T23:18:48.266Z,70.95
2022-09-22T23:21:16.138Z,71.08
2022-09-22T23:23:43.575Z,71.84
2022-09-22T23:26:12.173Z,71.96
2022-09-22T23:28:39.510Z,72.12
2022-09-22T23:31:22.256Z,72.13
2022-09-22T23:33:50.949Z,71.74
2022-09-22T23:36:22.836Z,71.80
2022-09-22T23:38:53.632Z,71.96
2022-09-22T23:41:20.177Z,71.73
2022-09-22T23:43:46.786Z,71.99
2022-09-22T23:46:13.395Z,71.56
2022-09-22T23:48:40.214Z,71.43
2022-09-22T23:51:06.740Z,70.91
2022-09-22T23:53:36.601Z,71.16
2022-09-22T23:56:04.701Z,71.83
2022-09-22T23:58:31.791Z,72.03
